Dandenong, Australia
Current Conditions -  °F | °C
As of 8:00 AM on Thursday 27 Nov 2014 (Local Time) from YMEN Reporting Station
Overcast Overcast  
Wind Chill: 57°   Ceiling: 3200
Heat Index: 57°   Visibility: 6mi
Dew Point: 43°   Wind: 13mph
Humidity: 59%   Direction: 160°SSE
Pressure: 30.27"   Gusts: NA
Location:  37.99°S, 145.21°E
Report Text: YMEN 262100Z AUTO 16011KT 9999 // OVC032 14/06 Q1025
Loading
Personal Weather Stations






























Interactive Weather Map New forecast layout! Learn more

10-Day Weather Forecast

Advertisements
Track Severe Weather on mobile